< Typhoon 197917 1979 Season Typhoon 197919 >
Typhoon 197918 (ROGER)
General InformationTrack Information on Google MapsDetailed Wind InformationList of All Images || Disaster Info.ResourceGoogle EarthGE AnimationAtom FeedGeoJSON
Detalied Best Track (Time Zone = UTC)
Year Month Day Hour Lat. Long. Pressure (hPa) Wind (kt) Class Image Chart
1979 10 3 12 19.0 137.0 998 0 2 Image Chart
1979 10 3 18 19.8 136.6 998 0 2 Image Chart
1979 10 4 00 20.7 136.1 992 40 3 Image Chart
1979 10 4 06 21.2 135.3 985 40 3 Image Chart
1979 10 4 12 21.2 134.4 985 40 3 Image Chart
1979 10 4 18 20.9 133.5 985 45 3 Image Chart
1979 10 5 00 20.2 134.0 992 40 3 Image Chart
1979 10 5 06 20.3 135.2 992 40 3 Image Chart
1979 10 5 12 21.5 135.7 992 40 3 Image Chart
1979 10 5 18 23.0 135.8 992 40 3 Image Chart
1979 10 6 00 24.4 135.0 992 40 3 Image Chart
1979 10 6 06 25.0 135.5 992 40 3 Image Chart
1979 10 6 12 26.7 135.8 992 45 3 Image Chart
1979 10 6 18 28.5 136.2 992 45 3 Image Chart
1979 10 7 00 31.5 137.0 992 45 3 Image Chart
1979 10 7 06 33.7 138.7 992 0 6 Image Chart
1979 10 7 12 34.7 141.3 992 0 6 Image Chart
1979 10 7 18 37.0 144.0 992 0 6 Image Chart
1979 10 8 00 38.3 145.1 992 0 6 Image Chart
1979 10 8 06 38.6 147.6 992 0 6 Image Chart
1979 10 8 12 38.8 148.9 992 0 6 Image Chart
1979 10 8 18 39.0 149.9 992 0 6 Image Chart
1979 10 9 00 38.9 151.0 992 0 6 Image Chart
1979 10 9 06 38.3 153.0 994 0 6 Image Chart
1979 10 9 12 37.6 155.2 998 0 6 Image Chart
1979 10 9 18 36.3 157.0 1002 0 6 Image Chart
1979 10 10 00 35.0 159.0 1008 0 6 Image Chart
1979 10 10 06 35.0 162.0 1008 0 6 Image Chart
1979 10 10 12 34.0 165.0 1012 0 6 Image Chart
1979 10 10 18 34.0 169.0 1012 0 6 Image Chart
Japan Meteorological Agency Best Track Data | Correction Date : 1992-10-21
< Typhoon 197917 1979 Season Typhoon 197919 >

Help